createdAt,value
2018-07-01T00:00:37.736Z,48.00
2018-07-01T00:03:06.067Z,48.40
2018-07-01T00:05:34.474Z,48.40
2018-07-01T00:08:02.857Z,47.50
2018-07-01T00:10:31.101Z,48.40
2018-07-01T00:12:59.369Z,48.60
2018-07-01T00:15:27.653Z,48.30
2018-07-01T00:17:55.929Z,48.50
2018-07-01T00:20:24.193Z,47.00
2018-07-01T00:22:52.473Z,46.50
2018-07-01T00:25:20.807Z,48.10
2018-07-01T00:27:49.089Z,45.00
2018-07-01T00:30:17.396Z,48.40
2018-07-01T00:32:46.049Z,47.70
2018-07-01T00:35:14.359Z,47.70
2018-07-01T00:37:42.648Z,48.50
2018-07-01T00:40:11.345Z,45.80
2018-07-01T00:42:39.977Z,48.10
2018-07-01T00:45:08.298Z,48.50
2018-07-01T00:47:36.589Z,47.70
2018-07-01T00:50:05.646Z,46.70
2018-07-01T00:52:34.448Z,46.40
2018-07-01T00:55:02.842Z,47.70
2018-07-01T00:57:31.093Z,47.70
2018-07-01T01:02:28.044Z,48.50
2018-07-01T01:04:56.352Z,48.60
2018-07-01T01:07:24.627Z,48.80
2018-07-01T01:09:53.028Z,47.70
2018-07-01T01:12:21.535Z,48.40
2018-07-01T01:14:49.808Z,48.50
2018-07-01T01:17:18.051Z,47.10
2018-07-01T01:19:46.321Z,48.70
2018-07-01T01:22:14.619Z,48.60
2018-07-01T01:24:43.277Z,48.70
2018-07-01T01:27:11.533Z,48.80
2018-07-01T01:29:39.825Z,48.70
2018-07-01T01:32:08.129Z,48.80
2018-07-01T01:34:36.792Z,48.60
2018-07-01T01:37:05.744Z,48.90
2018-07-01T01:39:36.977Z,48.90
2018-07-01T01:42:12.508Z,49.20
2018-07-01T01:45:00.601Z,48.90
2018-07-01T01:48:34.036Z,48.60
2018-07-01T01:51:12.926Z,48.60
2018-07-01T01:53:46.386Z,48.60
2018-07-01T01:57:22.835Z,48.90
2018-07-01T01:59:56.448Z,49.00
2018-07-01T02:02:34.131Z,48.90
2018-07-01T02:05:07.563Z,48.00
2018-07-01T02:07:54.321Z,47.50
2018-07-01T02:10:22.731Z,48.60
2018-07-01T02:12:50.995Z,48.80
2018-07-01T02:15:22.653Z,48.10
2018-07-01T02:17:52.473Z,49.00
2018-07-01T02:20:23.113Z,48.50
2018-07-01T02:22:54.666Z,49.10
2018-07-01T02:25:25.610Z,49.10
2018-07-01T02:27:54.149Z,49.10
2018-07-01T02:30:22.405Z,49.00
2018-07-01T02:32:50.673Z,49.10
2018-07-01T02:35:19.143Z,49.10
2018-07-01T02:37:47.380Z,49.10
2018-07-01T02:40:16.210Z,49.20
2018-07-01T02:42:44.524Z,49.80
2018-07-01T02:45:13.112Z,49.00
2018-07-01T02:47:41.444Z,48.00
2018-07-01T02:50:09.728Z,49.10
2018-07-01T02:52:38.325Z,49.10
2018-07-01T02:55:07.101Z,49.10
2018-07-01T02:57:35.421Z,49.10
2018-07-01T03:00:04.477Z,48.40
2018-07-01T03:02:32.998Z,48.40
2018-07-01T03:05:01.613Z,49.20
2018-07-01T03:07:29.921Z,48.70
2018-07-01T03:09:58.169Z,49.20
2018-07-01T03:12:26.450Z,49.30
2018-07-01T03:14:55.049Z,49.40
2018-07-01T03:17:23.337Z,49.30
2018-07-01T03:19:51.660Z,49.20
2018-07-01T03:22:19.942Z,48.50
2018-07-01T03:24:48.585Z,49.20
2018-07-01T03:27:16.894Z,49.30
2018-07-01T03:29:45.150Z,49.20
2018-07-01T03:32:13.490Z,49.20
2018-07-01T03:34:42.097Z,49.30
2018-07-01T03:37:10.413Z,49.30
2018-07-01T03:39:38.729Z,49.90
2018-07-01T03:42:07.032Z,49.30
2018-07-01T03:44:35.597Z,49.30
2018-07-01T03:47:03.930Z,49.20
2018-07-01T03:49:32.233Z,49.30
2018-07-01T03:52:00.480Z,49.30
2018-07-01T03:54:28.829Z,48.70
2018-07-01T03:56:57.134Z,49.10
2018-07-01T03:59:25.423Z,49.10
2018-07-01T04:01:53.666Z,49.30
2018-07-01T04:04:21.984Z,49.40
2018-07-01T04:06:50.229Z,49.30
2018-07-01T04:09:18.509Z,49.30
2018-07-01T04:11:46.777Z,49.40
2018-07-01T04:14:15.049Z,49.30
2018-07-01T04:16:43.453Z,49.40
2018-07-01T04:19:11.773Z,49.30
2018-07-01T04:21:40.048Z,49.10
2018-07-01T04:24:08.325Z,49.30
2018-07-01T04:26:36.902Z,49.30
2018-07-01T04:29:05.164Z,49.10
2018-07-01T04:33:59.923Z,49.10
2018-07-01T04:36:28.188Z,49.30
2018-07-01T04:38:56.450Z,49.20
2018-07-01T04:41:24.868Z,49.20
2018-07-01T04:43:53.499Z,49.20
2018-07-01T04:46:21.749Z,49.30
2018-07-01T04:48:50.070Z,48.80
2018-07-01T04:51:18.793Z,49.40
2018-07-01T04:53:47.091Z,49.00
2018-07-01T04:56:15.360Z,48.90
2018-07-01T04:58:43.625Z,48.60
2018-07-01T05:01:12.166Z,48.00
2018-07-01T05:03:40.445Z,46.70
2018-07-01T05:06:08.739Z,48.40
2018-07-01T05:08:37.126Z,48.20
2018-07-01T05:11:05.591Z,48.60
2018-07-01T05:13:33.880Z,48.50
2018-07-01T05:16:02.196Z,48.40
2018-07-01T05:18:30.425Z,48.20
2018-07-01T05:20:58.718Z,48.20
2018-07-01T05:23:27.082Z,49.00
2018-07-01T05:25:55.361Z,47.60
2018-07-01T05:28:23.660Z,47.60
2018-07-01T05:30:51.919Z,48.70
2018-07-01T05:33:20.393Z,48.40
2018-07-01T05:35:48.713Z,48.00
2018-07-01T05:38:17.138Z,47.60
2018-07-01T05:40:45.367Z,48.40
2018-07-01T05:45:41.840Z,48.30
2018-07-01T05:48:10.144Z,49.00
2018-07-01T05:50:38.397Z,48.60
2018-07-01T05:53:06.745Z,48.00
2018-07-01T05:55:35.292Z,48.10
2018-07-01T05:58:03.581Z,48.50
2018-07-01T06:00:31.845Z,45.40
2018-07-01T06:03:00.176Z,46.50
2018-07-01T06:05:29.580Z,46.70
2018-07-01T06:07:57.932Z,45.60
2018-07-01T06:10:26.240Z,46.70
2018-07-01T06:12:55.176Z,46.50
2018-07-01T06:15:24.089Z,47.10
2018-07-01T06:17:52.529Z,47.20
2018-07-01T06:20:21.820Z,47.40
2018-07-01T06:22:50.941Z,47.40
2018-07-01T06:25:19.246Z,47.70
2018-07-01T06:27:47.709Z,47.40
2018-07-01T06:32:44.101Z,47.40
2018-07-01T06:35:12.344Z,47.30
2018-07-01T06:37:40.624Z,47.10
2018-07-01T06:40:09.126Z,47.60
2018-07-01T06:42:37.544Z,47.60
2018-07-01T06:45:05.819Z,47.50
2018-07-01T06:47:34.077Z,47.40
2018-07-01T06:50:02.321Z,47.50
2018-07-01T06:52:31.416Z,47.10
2018-07-01T06:55:00.453Z,47.70
2018-07-01T06:57:29.091Z,47.70
2018-07-01T06:59:57.386Z,47.60
2018-07-01T07:02:25.649Z,47.50
2018-07-01T07:04:53.885Z,47.50
2018-07-01T07:07:22.105Z,47.70
2018-07-01T07:09:51.037Z,47.70
2018-07-01T07:12:19.332Z,47.60
2018-07-01T07:17:15.572Z,46.70
2018-07-01T07:19:43.865Z,47.10
2018-07-01T07:22:12.200Z,47.60
2018-07-01T07:24:40.550Z,47.60
2018-07-01T07:27:08.817Z,48.20
2018-07-01T07:29:37.113Z,47.60
2018-07-01T07:32:05.461Z,47.80
2018-07-01T07:34:33.729Z,47.60
2018-07-01T07:37:01.972Z,47.60
2018-07-01T07:39:30.245Z,47.40
2018-07-01T07:41:58.533Z,46.40
2018-07-01T07:44:26.816Z,47.90
2018-07-01T07:46:55.100Z,47.00
2018-07-01T07:49:23.345Z,47.50
2018-07-01T07:51:51.625Z,47.60
2018-07-01T07:54:19.947Z,47.40
2018-07-01T07:56:48.261Z,47.40
2018-07-01T07:59:16.535Z,47.70
2018-07-01T08:01:44.840Z,47.50
2018-07-01T08:04:13.093Z,47.60
2018-07-01T08:06:41.452Z,48.30
2018-07-01T08:09:10.842Z,47.40
2018-07-01T08:11:39.410Z,47.10
2018-07-01T08:14:08.131Z,47.50
2018-07-01T08:16:36.645Z,47.20
2018-07-01T08:19:04.993Z,47.30
2018-07-01T08:21:33.577Z,47.30
2018-07-01T08:24:01.994Z,46.90
2018-07-01T08:26:30.285Z,47.30
2018-07-01T08:28:58.547Z,47.30
2018-07-01T08:31:26.832Z,47.30
2018-07-01T08:33:55.097Z,47.30
2018-07-01T08:36:23.362Z,47.20
2018-07-01T08:38:51.653Z,47.20
2018-07-01T08:41:19.929Z,46.80
2018-07-01T08:43:48.653Z,47.10
2018-07-01T08:46:17.020Z,47.20
2018-07-01T08:48:45.269Z,47.20
2018-07-01T08:51:13.641Z,47.00
2018-07-01T08:53:41.872Z,47.60
2018-07-01T08:56:10.127Z,47.00
2018-07-01T08:58:38.433Z,46.40
2018-07-01T09:01:06.724Z,46.80
2018-07-01T09:03:34.971Z,46.90
2018-07-01T09:06:03.245Z,46.80
2018-07-01T09:08:31.547Z,46.80
2018-07-01T09:10:59.784Z,46.70
2018-07-01T09:13:28.058Z,46.10
2018-07-01T09:15:56.327Z,46.70
2018-07-01T09:18:24.577Z,46.30
2018-07-01T09:20:52.839Z,45.90
2018-07-01T09:23:21.101Z,46.20
2018-07-01T09:25:49.365Z,46.00
2018-07-01T09:28:17.649Z,46.40
2018-07-01T09:30:45.905Z,45.20
2018-07-01T09:33:14.397Z,47.10
2018-07-01T09:35:42.685Z,45.70
2018-07-01T09:38:10.937Z,46.00
2018-07-01T09:40:39.212Z,46.00
2018-07-01T09:43:07.493Z,45.40
2018-07-01T09:45:35.861Z,46.10
2018-07-01T09:48:04.173Z,46.00
2018-07-01T09:50:32.492Z,46.10
2018-07-01T09:53:00.761Z,45.40
2018-07-01T09:55:29.017Z,46.40
2018-07-01T09:57:57.301Z,46.00
2018-07-01T10:00:25.581Z,44.80
2018-07-01T10:02:53.863Z,45.70
2018-07-01T10:05:22.169Z,45.70
2018-07-01T10:07:50.416Z,45.20
2018-07-01T10:10:18.693Z,45.50
2018-07-01T10:12:46.943Z,45.50
2018-07-01T10:15:15.239Z,45.00
2018-07-01T10:17:43.504Z,45.60
2018-07-01T10:20:11.801Z,45.20
2018-07-01T10:22:40.068Z,45.20
2018-07-01T10:25:08.466Z,45.50
2018-07-01T10:27:36.851Z,45.30
2018-07-01T10:30:05.540Z,44.80
2018-07-01T10:32:33.870Z,45.20
2018-07-01T10:35:02.170Z,45.00
2018-07-01T10:37:30.447Z,44.80
2018-07-01T10:39:58.720Z,44.70
2018-07-01T10:42:26.968Z,44.70
2018-07-01T10:44:55.257Z,44.70
2018-07-01T10:47:23.525Z,45.60
2018-07-01T10:49:51.825Z,44.70
2018-07-01T10:52:20.106Z,44.50
2018-07-01T10:54:48.581Z,44.80
2018-07-01T10:57:16.872Z,44.70
2018-07-01T10:59:45.283Z,44.70
2018-07-01T11:02:13.610Z,44.70
2018-07-01T11:04:41.860Z,44.30
2018-07-01T11:07:10.169Z,44.50
2018-07-01T11:09:38.496Z,44.60
2018-07-01T11:12:06.914Z,44.80
2018-07-01T11:17:03.429Z,44.40
2018-07-01T11:19:31.709Z,44.30
2018-07-01T11:22:00.061Z,44.60
2018-07-01T11:24:28.312Z,44.70
2018-07-01T11:26:56.817Z,44.60
2018-07-01T11:29:24.925Z,44.20
2018-07-01T11:31:53.232Z,44.50
2018-07-01T11:34:21.489Z,44.50
2018-07-01T11:36:49.846Z,44.60
2018-07-01T11:39:18.090Z,45.20
2018-07-01T11:41:46.541Z,44.50
2018-07-01T11:44:14.829Z,44.30
2018-07-01T11:46:43.201Z,44.40
2018-07-01T11:49:11.525Z,43.90
2018-07-01T11:51:39.972Z,44.00
2018-07-01T11:54:08.386Z,44.20
2018-07-01T11:56:36.769Z,43.50
2018-07-01T11:59:08.640Z,44.20
2018-07-01T12:01:36.910Z,44.20
2018-07-01T12:04:05.492Z,44.50
2018-07-01T12:06:33.824Z,44.40
2018-07-01T12:09:02.399Z,43.70
2018-07-01T12:11:30.681Z,44.00
2018-07-01T12:13:58.956Z,44.30
2018-07-01T12:16:28.759Z,44.10
2018-07-01T12:18:58.315Z,38.50
2018-07-01T12:21:28.059Z,38.40
2018-07-01T12:23:56.379Z,39.00
2018-07-01T12:26:24.704Z,39.00
2018-07-01T12:28:53.623Z,38.90
2018-07-01T12:31:23.659Z,38.80
2018-07-01T12:33:53.315Z,38.50
2018-07-01T12:36:21.620Z,38.80
2018-07-01T12:38:49.952Z,38.50
2018-07-01T12:41:18.280Z,38.80
2018-07-01T12:43:46.607Z,38.70
2018-07-01T12:46:14.928Z,39.50
2018-07-01T12:48:43.304Z,38.80
2018-07-01T12:51:11.593Z,38.80
2018-07-01T12:53:39.903Z,38.90
2018-07-01T12:56:08.189Z,38.50
2018-07-01T12:58:36.461Z,38.80
2018-07-01T13:01:04.784Z,38.90
2018-07-01T13:03:33.046Z,39.10
2018-07-01T13:06:01.357Z,38.70
2018-07-01T13:08:29.608Z,38.50
2018-07-01T13:10:57.867Z,39.10
2018-07-01T13:13:26.160Z,38.50
2018-07-01T13:15:54.440Z,37.80
2018-07-01T13:18:22.777Z,39.00
2018-07-01T13:20:51.048Z,38.80
2018-07-01T13:23:19.390Z,37.90
2018-07-01T13:25:47.693Z,39.20
2018-07-01T13:28:15.976Z,38.80
2018-07-01T13:30:44.287Z,38.70
2018-07-01T13:33:12.566Z,35.90
2018-07-01T13:35:40.821Z,39.30
2018-07-01T13:38:09.086Z,39.40
2018-07-01T13:40:37.421Z,39.20
2018-07-01T13:43:05.705Z,38.70
2018-07-01T13:45:34.049Z,39.40
2018-07-01T13:48:03.005Z,38.80
2018-07-01T13:50:31.301Z,35.60
2018-07-01T13:52:59.727Z,39.30
2018-07-01T13:55:27.981Z,39.30
2018-07-01T13:57:56.384Z,39.70
2018-07-01T14:00:24.702Z,39.60
2018-07-01T14:02:52.958Z,38.80
2018-07-01T14:05:21.459Z,39.40
2018-07-01T14:07:49.878Z,39.50
2018-07-01T14:10:18.165Z,36.20
2018-07-01T14:15:14.541Z,38.70
2018-07-01T14:17:42.807Z,39.50
2018-07-01T14:20:11.772Z,39.00
2018-07-01T14:22:40.367Z,39.30
2018-07-01T14:25:09.659Z,38.90
2018-07-01T14:27:38.012Z,39.00
2018-07-01T14:30:06.651Z,37.80
2018-07-01T14:32:35.224Z,38.10
2018-07-01T14:35:03.542Z,38.40
2018-07-01T14:37:31.972Z,38.70
2018-07-01T14:40:00.293Z,38.60
2018-07-01T14:42:28.569Z,38.40
2018-07-01T14:44:57.105Z,36.80
2018-07-01T14:47:25.443Z,37.70
2018-07-01T14:49:53.700Z,37.40
2018-07-01T14:52:22.950Z,39.00
2018-07-01T14:54:51.286Z,38.90
2018-07-01T14:57:19.585Z,38.70
2018-07-01T14:59:48.060Z,36.70
2018-07-01T15:02:16.545Z,39.80
2018-07-01T15:04:44.796Z,36.60
2018-07-01T15:07:13.069Z,39.30
2018-07-01T15:09:41.387Z,39.50
2018-07-01T15:12:09.632Z,39.10
2018-07-01T15:17:06.965Z,38.30
2018-07-01T15:19:35.841Z,39.10
2018-07-01T15:22:04.481Z,38.80
2018-07-01T15:24:33.207Z,37.30
2018-07-01T15:27:01.694Z,39.10
2018-07-01T15:29:30.835Z,38.40
2018-07-01T15:31:59.572Z,38.80
2018-07-01T15:34:27.912Z,38.30
2018-07-01T15:36:56.553Z,38.40
2018-07-01T15:39:25.131Z,38.00
2018-07-01T15:44:22.321Z,38.60
2018-07-01T15:49:20.621Z,39.00
2018-07-01T15:51:51.110Z,38.80
2018-07-01T15:54:20.006Z,36.50
2018-07-01T15:56:49.978Z,37.90
2018-07-01T15:59:18.816Z,39.70
2018-07-01T16:01:47.603Z,38.90
2018-07-01T16:04:16.849Z,38.50
2018-07-01T16:06:45.879Z,37.80
2018-07-01T16:09:14.586Z,38.80
2018-07-01T16:11:43.170Z,38.70
2018-07-01T16:14:11.675Z,38.30
2018-07-01T16:16:41.409Z,38.70
2018-07-01T16:19:09.988Z,38.40
2018-07-01T16:21:39.027Z,36.50
2018-07-01T16:24:08.117Z,38.80
2018-07-01T16:29:10.534Z,37.20
2018-07-01T16:31:39.183Z,39.10
2018-07-01T16:34:09.870Z,39.10
2018-07-01T16:39:11.496Z,38.70
2018-07-01T16:41:40.481Z,37.60
2018-07-01T16:44:09.506Z,35.80
2018-07-01T16:46:38.193Z,37.60
2018-07-01T16:49:06.915Z,38.00
2018-07-01T16:51:35.695Z,36.00
2018-07-01T16:54:04.447Z,38.00
2018-07-01T16:56:33.379Z,37.70
2018-07-01T16:59:01.830Z,37.30
2018-07-01T17:01:30.440Z,37.40
2018-07-01T17:03:59.006Z,36.70
2018-07-01T17:06:28.194Z,37.30
2018-07-01T17:08:56.861Z,35.90
2018-07-01T17:11:25.505Z,37.70
2018-07-01T17:13:54.004Z,36.40
2018-07-01T17:16:22.288Z,37.10
2018-07-01T17:18:50.569Z,37.60
2018-07-01T17:23:47.177Z,37.20
2018-07-01T17:26:15.528Z,36.80
2018-07-01T17:28:43.785Z,36.10
2018-07-01T17:31:17.453Z,36.40
2018-07-01T17:33:45.925Z,35.80
2018-07-01T17:36:14.288Z,36.30
2018-07-01T17:38:42.629Z,34.10
2018-07-01T17:41:11.090Z,36.00
2018-07-01T17:43:39.425Z,35.00
2018-07-01T17:46:07.689Z,29.30
2018-07-01T17:48:35.981Z,28.50
2018-07-01T17:51:04.293Z,29.00
2018-07-01T17:53:44.008Z,29.30
2018-07-01T17:56:12.377Z,30.00
2018-07-01T17:58:40.769Z,30.00
2018-07-01T18:01:09.152Z,30.10
2018-07-01T18:06:05.826Z,31.20
2018-07-01T18:11:02.291Z,31.10
2018-07-01T18:13:30.753Z,31.40
2018-07-01T18:15:59.121Z,30.30
2018-07-01T18:18:27.789Z,31.30
2018-07-01T18:20:56.246Z,31.50
2018-07-01T18:23:53.707Z,31.70
2018-07-01T18:25:52.855Z,31.70
2018-07-01T18:28:34.110Z,32.40
2018-07-01T18:30:49.505Z,32.20
2018-07-01T18:33:17.977Z,32.60
2018-07-01T18:35:46.240Z,32.60
2018-07-01T18:38:14.521Z,32.60
2018-07-01T18:40:42.858Z,32.50
2018-07-01T18:43:11.273Z,32.90
2018-07-01T18:45:39.855Z,33.30
2018-07-01T18:48:08.356Z,33.30
2018-07-01T18:50:36.749Z,33.60
2018-07-01T18:53:05.106Z,33.60
2018-07-01T18:55:33.682Z,33.70
2018-07-01T18:58:02.365Z,34.10
2018-07-01T19:00:30.640Z,34.10
2018-07-01T19:02:58.904Z,34.30
2018-07-01T19:05:27.236Z,34.60
2018-07-01T19:07:55.533Z,34.20
2018-07-01T19:10:23.818Z,34.60
2018-07-01T19:12:52.111Z,35.00
2018-07-01T19:15:20.429Z,34.10
2018-07-01T19:17:48.756Z,35.50
2018-07-01T19:20:17.044Z,35.60
2018-07-01T19:22:45.337Z,35.00
2018-07-01T19:25:13.618Z,34.80
2018-07-01T19:27:41.861Z,35.60
2018-07-01T19:30:10.203Z,36.10
2018-07-01T19:32:38.462Z,36.10
2018-07-01T19:35:06.805Z,35.60
2018-07-01T19:40:03.288Z,36.30
2018-07-01T19:42:31.696Z,36.60
2018-07-01T19:44:59.857Z,36.60
2018-07-01T19:47:28.430Z,36.40
2018-07-01T19:49:56.830Z,36.50
2018-07-01T19:52:26.195Z,35.80
2018-07-01T19:54:54.444Z,36.80
2018-07-01T19:57:22.915Z,37.00
2018-07-01T19:59:51.457Z,36.50
2018-07-01T20:02:19.783Z,36.80
2018-07-01T20:04:48.054Z,37.00
2018-07-01T20:07:16.317Z,37.20
2018-07-01T20:09:44.604Z,37.20
2018-07-01T20:12:12.917Z,37.60
2018-07-01T20:14:41.258Z,37.10
2018-07-01T20:17:09.520Z,37.80
2018-07-01T20:19:37.791Z,37.60
2018-07-01T20:22:06.041Z,37.60
2018-07-01T20:24:34.314Z,37.70
2018-07-01T20:27:02.740Z,37.80
2018-07-01T20:29:31.233Z,37.80
2018-07-01T20:31:59.574Z,37.70
2018-07-01T20:34:28.342Z,37.40
2018-07-01T20:36:56.728Z,37.30
2018-07-01T20:39:25.873Z,38.00
2018-07-01T20:41:54.515Z,37.90
2018-07-01T20:44:23.092Z,38.20
2018-07-01T20:49:20.172Z,37.50
2018-07-01T20:51:48.575Z,37.90
2018-07-01T20:54:17.937Z,38.10
2018-07-01T20:56:46.397Z,37.40
2018-07-01T20:59:14.913Z,38.10
2018-07-01T21:01:43.228Z,38.20
2018-07-01T21:04:11.642Z,38.90
2018-07-01T21:06:40.117Z,38.20
2018-07-01T21:09:10.063Z,38.40
2018-07-01T21:11:38.547Z,38.10
2018-07-01T21:14:06.932Z,38.30
2018-07-01T21:16:35.396Z,38.30
2018-07-01T21:19:04.169Z,38.20
2018-07-01T21:21:32.746Z,38.60
2018-07-01T21:24:01.792Z,38.50
2018-07-01T21:26:30.176Z,38.50
2018-07-01T21:28:58.729Z,38.50
2018-07-01T21:31:27.293Z,38.40
2018-07-01T21:33:55.649Z,38.40
2018-07-01T21:36:23.914Z,38.50
2018-07-01T21:38:52.169Z,38.50
2018-07-01T21:41:20.769Z,38.60
2018-07-01T21:43:49.332Z,38.60
2018-07-01T21:46:17.618Z,38.70
2018-07-01T21:48:45.977Z,38.60
2018-07-01T21:51:14.392Z,38.70
2018-07-01T21:53:43.020Z,38.70
2018-07-01T21:56:11.528Z,38.60
2018-07-01T21:58:39.871Z,38.70
2018-07-01T22:01:09.426Z,38.70
2018-07-01T22:03:37.805Z,38.70
2018-07-01T22:06:08.357Z,38.90
2018-07-01T22:08:37.677Z,38.90
2018-07-01T22:11:21.192Z,38.90
2018-07-01T22:14:23.075Z,39.00
2018-07-01T22:19:20.024Z,39.10
2018-07-01T22:21:49.428Z,39.10
2018-07-01T22:24:17.829Z,39.00
2018-07-01T22:26:46.337Z,39.20
2018-07-01T22:29:15.706Z,39.10
2018-07-01T22:31:43.999Z,39.10
2018-07-01T22:34:13.584Z,39.20
2018-07-01T22:36:42.887Z,39.20
2018-07-01T22:39:16.844Z,39.30
2018-07-01T22:41:46.090Z,39.30
2018-07-01T22:46:43.507Z,39.50
2018-07-01T22:49:12.288Z,39.40
2018-07-01T22:51:41.485Z,39.40
2018-07-01T22:54:09.837Z,39.50
2018-07-01T22:56:38.495Z,39.50
2018-07-01T22:59:07.563Z,39.60
2018-07-01T23:01:37.069Z,39.60
2018-07-01T23:04:05.940Z,39.60
2018-07-01T23:06:34.369Z,39.70
2018-07-01T23:09:02.692Z,39.70
2018-07-01T23:11:31.162Z,39.70
2018-07-01T23:14:00.345Z,39.90
2018-07-01T23:16:28.791Z,39.80
2018-07-01T23:18:57.193Z,39.80
2018-07-01T23:21:25.600Z,39.90
2018-07-01T23:23:54.004Z,40.00
2018-07-01T23:26:22.505Z,40.00
2018-07-01T23:28:51.641Z,39.80
2018-07-01T23:31:20.181Z,40.00
2018-07-01T23:33:48.509Z,40.00
2018-07-01T23:38:48.213Z,40.00
2018-07-01T23:41:16.661Z,40.20
2018-07-01T23:43:45.010Z,40.30
2018-07-01T23:46:13.329Z,40.20
2018-07-01T23:48:42.425Z,40.00
2018-07-01T23:51:10.733Z,40.50
2018-07-01T23:53:39.049Z,40.30
2018-07-01T23:56:07.690Z,40.60
2018-07-01T23:58:36.590Z,40.60
